カンゲルルススアーク の空港の天気 - METARとTAF

カンゲルルススアーク空港 ( BGSF / SFJ ) - グリーンランド カンゲルルススアーク
飛行場実況気象(Metar)
観測時間04/25 04:50 WGST (04/25 06:50 UTC)
風向・風速東 4m/s
視程-
天気現象
なし
気温-14℃
湿度78%
気圧1015hPa
METARBGSF 250650Z AUTO 08007KT 9999NDV NCD M14/M17 Q1015
過去の天気等 Google飛行場航空写真 Wunderground天気予報

過去48時間のMETAR

飛行場予報(TAF)
発表時間: 4/25 04:16 WGST (4/25 06:16 UTC)
予報対象時間: 25日4時 WGST ~ 26日10時 WGST
風向・風速東北東 4m/s
視程10km以上
全天の8割程度の雲 雲底高度 1830m
25日4時 WGST ~ 25日7時 WGST に一時的に
全天の4割程度の雲 雲底高度 910m
25日7時 WGST ~ 25日9時 WGST に徐々に
全天の4割程度の雲 雲底高度 1830m
TAF AMD BGSF 250616Z 2506/2612 06008KT 9999 BKN060
TEMPO 2506/2509 SCT030
BECMG 2509/2511 SCT060